Terminal Aerodrome Forecast
Issued by NWS

Home | Current Version | Previous Version | Text Only | Print | Product List | Glossary On
Versions: 1 2 3 4 5 6 7 8 9 10 11 12 13 14
365
FTUS41 KLWX 141730
TAFMTN
TAF
KMTN 141730Z 1418/1518 32008KT P6SM FEW200
     FM142100 VRB04KT P6SM BKN100 OVC200
     FM150800 14005KT P6SM OVC050
     FM151200 14006KT 5SM -SN OVC025
     FM151700 09007KT 2SM -SN OVC008=

USA.gov is the U.S. government's official web portal to all federal, state and local government web resources and services.